Terminal Aerodrome Forecast
Issued by NWS Quad Cities IA IL

Home | Current Version | Previous Version | Text Only | Print | Product List | Glossary On
Versions: 1 2 3 4 5 6 7 8 9 10 11 12 13 14 15 16 17 18 19 20 21 22 23
000
FTUS43 KDVN 211600 AAB
TAFMLI
TAF AMD
KMLI 211644Z 2117/2212 32013G20KT P6SM BKN035
     FM212100 32012G20KT P6SM SCT040
     FM220000 33008KT P6SM SKC=

USA.gov is the U.S. government's official web portal to all federal, state and local government web resources and services.